Time;durP1;ratioP1;P1;durP2;ratioP2;P2;SDS_P1;SDS_P2;PMS_P1;PMS_P2;Temp;Humidity;BMP_temperature;BMP_pressure;BME280_temperature;BME280_humidity;BME280_pressure;Samples;Min_cycle;Max_cycle;Signal;HPM_P1;HPM_P2
2023/06/24 00:02:13;;;;;;;11.13;9.52;;;17.30;99.90;;;;;;5008591;28;20048;-78
2023/06/24 00:04:39;;;;;;;13.30;10.57;;;17.30;99.90;;;;;;5019809;28;20048;-77
2023/06/24 00:07:05;;;;;;;12.10;9.77;;;17.30;99.90;;;;;;5024730;28;20416;-77
2023/06/24 00:09:31;;;;;;;10.88;9.45;;;17.30;99.90;;;;;;5022542;28;20056;-77
2023/06/24 00:12:00;;;;;;;12.85;10.18;;;17.30;99.90;;;;;;5003714;28;20046;-77
2023/06/24 00:14:27;;;;;;;13.65;10.32;;;17.20;99.90;;;;;;5021735;28;20787;-80
2023/06/24 00:16:54;;;;;;;14.93;10.57;;;17.20;99.90;;;;;;5005193;28;20047;-77
2023/06/24 00:19:21;;;;;;;13.05;10.15;;;17.20;99.90;;;;;;5022739;28;20472;-79
2023/06/24 00:21:51;;;;;;;12.02;10.52;;;17.10;99.90;;;;;;5020539;28;20279;-77
2023/06/24 00:24:19;;;;;;;13.35;10.63;;;17.10;99.90;;;;;;5019027;28;20103;-77
2023/06/24 00:26:48;;;;;;;15.35;11.00;;;17.10;99.90;;;;;;5038197;28;20088;-80
2023/06/24 00:29:15;;;;;;;13.13;10.50;;;17.00;99.90;;;;;;5022885;28;20187;-77
2023/06/24 00:31:41;;;;;;;13.55;10.70;;;16.90;99.90;;;;;;5017937;28;21057;-80
2023/06/24 00:34:07;;;;;;;13.32;11.48;;;16.90;99.90;;;;;;5023697;28;20098;-78
2023/06/24 00:36:35;;;;;;;13.73;10.82;;;16.90;99.90;;;;;;5021048;28;20040;-79
2023/06/24 00:39:05;;;;;;;14.23;11.55;;;16.90;99.90;;;;;;5007059;28;20041;-77
2023/06/24 00:41:31;;;;;;;14.00;10.45;;;16.90;99.90;;;;;;5002867;28;20086;-78
2023/06/24 00:43:58;;;;;;;11.85;10.15;;;16.90;99.90;;;;;;5006742;28;20527;-77
2023/06/24 00:46:28;;;;;;;14.48;10.20;;;16.90;99.90;;;;;;5007132;28;20108;-79
2023/06/24 00:48:57;;;;;;;12.00;10.32;;;16.90;99.90;;;;;;5032930;28;20049;-79
2023/06/24 00:51:29;;;;;;;14.30;10.77;;;16.90;99.90;;;;;;5020338;28;20045;-78
2023/06/24 00:53:55;;;;;;;11.43;9.93;;;16.90;99.90;;;;;;5022891;28;20053;-76
2023/06/24 00:56:25;;;;;;;12.55;10.77;;;16.90;99.90;;;;;;5038557;28;20495;-78
2023/06/24 00:58:52;;;;;;;14.00;11.25;;;16.90;99.90;;;;;;5004185;28;20128;-78
2023/06/24 01:01:18;;;;;;;13.20;11.05;;;16.80;99.90;;;;;;5035893;28;20053;-77
2023/06/24 01:03:45;;;;;;;11.52;10.32;;;16.90;99.90;;;;;;5023922;28;20103;-76
2023/06/24 01:06:13;;;;;;;12.68;10.25;;;16.80;99.90;;;;;;5017865;28;20045;-77
2023/06/24 01:08:38;;;;;;;13.98;10.63;;;16.80;99.90;;;;;;5017657;28;20053;-77
2023/06/24 01:11:04;;;;;;;14.02;10.50;;;16.80;99.90;;;;;;5023245;28;20045;-77
2023/06/24 01:13:30;;;;;;;11.93;10.20;;;16.80;99.90;;;;;;5014993;28;20120;-76
2023/06/24 01:16:00;;;;;;;13.93;10.25;;;16.70;99.90;;;;;;5002025;28;20127;-75
2023/06/24 01:18:43;;;;;;;13.65;10.80;;;16.70;99.90;;;;;;5016297;28;20056;-76
2023/06/24 01:21:21;;;;;;;15.48;10.43;;;16.70;99.90;;;;;;5025563;28;20073;-76
2023/06/24 01:23:49;;;;;;;15.85;11.27;;;16.60;99.90;;;;;;5022909;28;20048;-77
2023/06/24 01:26:33;;;;;;;13.30;10.85;;;16.60;99.90;;;;;;5018941;28;20036;-78
2023/06/24 01:29:33;;;;;;;13.55;11.55;;;16.60;99.90;;;;;;5032152;28;20135;-77
2023/06/24 01:32:02;;;;;;;12.05;10.70;;;16.50;99.90;;;;;;5023596;28;20045;-77
2023/06/24 01:34:47;;;;;;;14.27;11.10;;;16.40;99.90;;;;;;5020631;28;20124;-77
2023/06/24 01:37:20;;;;;;;12.70;10.38;;;16.40;99.90;;;;;;5019327;28;20514;-78
2023/06/24 01:40:00;;;;;;;13.30;10.73;;;16.40;99.90;;;;;;5030962;28;20045;-75
2023/06/24 01:42:29;;;;;;;12.40;9.70;;;16.30;99.90;;;;;;5002698;28;20041;-76
2023/06/24 01:44:56;;;;;;;15.43;11.15;;;16.30;99.90;;;;;;5024194;28;20049;-76
2023/06/24 01:47:26;;;;;;;14.10;11.27;;;16.30;99.90;;;;;;5020720;28;20045;-76
2023/06/24 01:49:54;;;;;;;13.65;10.57;;;16.30;99.90;;;;;;5034447;28;20103;-76
2023/06/24 01:52:23;;;;;;;13.07;11.23;;;16.20;99.90;;;;;;5037005;28;20115;-78
2023/06/24 01:54:50;;;;;;;13.95;11.65;;;16.20;99.90;;;;;;5019006;28;20049;-78
2023/06/24 01:57:17;;;;;;;15.20;11.02;;;16.20;99.90;;;;;;5017768;28;20115;-77
2023/06/24 01:59:46;;;;;;;15.20;10.85;;;16.10;99.90;;;;;;5014093;28;20644;-79
2023/06/24 02:02:13;;;;;;;16.13;11.05;;;16.10;99.90;;;;;;5014112;28;20052;-80
2023/06/24 02:04:39;;;;;;;12.82;10.95;;;16.10;99.90;;;;;;5025647;28;20055;-80
2023/06/24 02:07:08;;;;;;;15.18;11.98;;;16.10;99.90;;;;;;5011703;28;20072;-78
2023/06/24 02:09:34;;;;;;;13.77;10.98;;;16.10;99.90;;;;;;5010620;28;20380;-77
2023/06/24 02:12:03;;;;;;;13.05;10.93;;;16.00;99.90;;;;;;5009354;28;20144;-78
2023/06/24 02:14:30;;;;;;;14.48;11.32;;;16.00;99.90;;;;;;5015864;28;20041;-80
2023/06/24 02:17:04;;;;;;;14.40;11.57;;;16.00;99.90;;;;;;5007136;28;20063;-78
2023/06/24 02:19:31;;;;;;;13.77;11.15;;;16.00;99.90;;;;;;5013442;28;20694;-78
2023/06/24 02:21:59;;;;;;;13.73;11.00;;;16.00;99.90;;;;;;4997799;28;20040;-77
2023/06/24 02:24:26;;;;;;;15.85;11.55;;;16.00;99.90;;;;;;5013860;28;20044;-78
2023/06/24 02:26:53;;;;;;;14.80;11.15;;;16.00;99.90;;;;;;5011205;28;20053;-78
2023/06/24 02:29:19;;;;;;;14.48;10.80;;;16.00;99.90;;;;;;5029278;28;20056;-80
2023/06/24 02:31:45;;;;;;;12.88;11.25;;;16.00;99.90;;;;;;4994689;28;20397;-78
2023/06/24 02:34:11;;;;;;;15.10;11.73;;;16.00;99.90;;;;;;4991117;28;20129;-76
2023/06/24 02:36:37;;;;;;;13.85;11.35;;;16.00;99.90;;;;;;5012684;28;20041;-79
2023/06/24 02:39:04;;;;;;;14.95;11.85;;;16.00;99.90;;;;;;4996187;28;20049;-78
2023/06/24 02:41:30;;;;;;;14.82;12.05;;;15.90;99.90;;;;;;5002375;28;20084;-80
2023/06/24 02:43:55;;;;;;;14.90;12.00;;;15.90;99.90;;;;;;5008556;28;20094;-77
2023/06/24 02:46:22;;;;;;;14.38;11.88;;;15.90;99.90;;;;;;5013817;28;20044;-76
2023/06/24 02:48:50;;;;;;;19.52;12.05;;;15.80;99.90;;;;;;5013764;28;20475;-78
2023/06/24 02:51:16;;;;;;;15.77;12.52;;;15.80;99.90;;;;;;5016819;28;20056;-79
2023/06/24 02:53:45;;;;;;;15.27;11.95;;;15.70;99.90;;;;;;5030394;28;20081;-78
2023/06/24 02:56:13;;;;;;;18.13;12.27;;;15.70;99.90;;;;;;5013881;28;20045;-77
2023/06/24 02:58:40;;;;;;;17.05;12.70;;;15.60;99.90;;;;;;5029502;28;20100;-76
2023/06/24 03:01:09;;;;;;;16.45;12.50;;;15.60;99.90;;;;;;5025135;28;20049;-77
2023/06/24 03:03:35;;;;;;;15.73;12.07;;;15.60;99.90;;;;;;4994617;28;20044;-78
2023/06/24 03:06:02;;;;;;;16.17;12.30;;;15.60;99.90;;;;;;4977699;28;20635;-77
2023/06/24 03:08:28;;;;;;;18.27;12.35;;;15.60;99.90;;;;;;5009820;28;20065;-78
2023/06/24 03:10:58;;;;;;;16.73;12.30;;;15.50;99.90;;;;;;5011699;28;20631;-77
2023/06/24 03:13:26;;;;;;;17.75;12.48;;;15.50;99.90;;;;;;4995748;28;20045;-76
2023/06/24 03:15:51;;;;;;;16.33;11.77;;;15.50;99.90;;;;;;4993284;28;20915;-76
2023/06/24 03:18:18;;;;;;;16.88;12.18;;;15.50;99.90;;;;;;5012846;28;20132;-79
2023/06/24 03:20:44;;;;;;;15.20;12.07;;;15.60;99.90;;;;;;5003956;28;20072;-78
2023/06/24 03:23:11;;;;;;;15.88;12.30;;;15.60;99.90;;;;;;5015126;28;20076;-76
2023/06/24 03:25:36;;;;;;;14.82;12.40;;;15.60;99.90;;;;;;5011570;28;20458;-78
2023/06/24 03:28:07;;;;;;;14.52;11.52;;;15.60;99.90;;;;;;5011477;28;20103;-78
2023/06/24 03:30:33;;;;;;;14.60;11.48;;;15.60;99.90;;;;;;5043761;28;20570;-76
2023/06/24 03:32:59;;;;;;;14.75;11.35;;;15.60;99.90;;;;;;4998745;28;20046;-78
2023/06/24 03:35:24;;;;;;;15.93;11.43;;;15.60;99.90;;;;;;4991894;28;20048;-76
2023/06/24 03:37:50;;;;;;;15.82;12.02;;;15.70;99.90;;;;;;5012424;28;20056;-79
2023/06/24 03:40:16;;;;;;;15.88;11.98;;;15.70;99.90;;;;;;5010332;28;20109;-77
2023/06/24 03:42:42;;;;;;;15.98;12.50;;;15.70;99.90;;;;;;4995020;28;20146;-77
2023/06/24 03:45:08;;;;;;;16.55;11.82;;;15.70;99.90;;;;;;5011934;28;20055;-76
2023/06/24 03:47:34;;;;;;;15.07;11.75;;;15.70;99.90;;;;;;5009943;28;20045;-77
2023/06/24 03:50:00;;;;;;;16.98;12.57;;;15.70;99.90;;;;;;5011556;28;20095;-78
2023/06/24 03:52:25;;;;;;;16.02;12.00;;;15.70;99.90;;;;;;4993334;28;20393;-78
2023/06/24 03:54:51;;;;;;;15.10;11.75;;;15.70;99.90;;;;;;5013641;28;20045;-77
2023/06/24 03:57:17;;;;;;;15.18;11.77;;;15.70;99.90;;;;;;5012186;28;20115;-78
2023/06/24 03:59:43;;;;;;;14.40;11.18;;;15.70;99.90;;;;;;5026839;28;20056;-79
2023/06/24 04:02:09;;;;;;;16.52;12.10;;;15.70;99.90;;;;;;5013663;28;20048;-77
2023/06/24 04:04:37;;;;;;;16.20;12.48;;;15.70;99.90;;;;;;5011317;28;20103;-79
2023/06/24 04:07:05;;;;;;;18.48;12.07;;;15.70;99.90;;;;;;5010166;28;20094;-78
2023/06/24 04:09:34;;;;;;;14.80;11.88;;;15.70;99.90;;;;;;5013355;28;20056;-77
2023/06/24 04:12:00;;;;;;;14.55;11.98;;;15.80;99.90;;;;;;5016064;28;20131;-79
2023/06/24 04:14:26;;;;;;;14.75;12.43;;;15.80;99.90;;;;;;5010038;28;20055;-77
2023/06/24 04:16:52;;;;;;;16.88;12.18;;;15.90;99.90;;;;;;5012377;28;20049;-76
2023/06/24 04:19:18;;;;;;;16.88;11.93;;;15.80;99.90;;;;;;5021121;28;20126;-78
2023/06/24 04:21:44;;;;;;;15.75;12.43;;;15.90;99.90;;;;;;4993998;28;20541;-79
2023/06/24 04:24:09;;;;;;;16.10;12.48;;;15.60;99.90;;;;;;4975882;28;20044;-77
2023/06/24 04:26:35;;;;;;;15.18;12.32;;;15.90;99.90;;;;;;5012276;28;20399;-78
2023/06/24 04:29:01;;;;;;;18.10;11.98;;;16.50;99.90;;;;;;4994206;28;20045;-77
2023/06/24 04:31:27;;;;;;;19.05;12.50;;;16.00;99.90;;;;;;5017681;28;20040;-78
2023/06/24 04:33:54;;;;;;;19.75;12.93;;;16.00;99.90;;;;;;5011609;28;20053;-78
2023/06/24 04:36:19;;;;;;;16.45;12.60;;;16.00;99.90;;;;;;4993275;28;20057;-79
2023/06/24 04:38:45;;;;;;;17.33;13.35;;;16.10;99.90;;;;;;5011595;28;20080;-77
2023/06/24 04:41:11;;;;;;;17.55;12.20;;;16.10;99.90;;;;;;5021862;28;20052;-77
2023/06/24 04:43:37;;;;;;;15.35;12.68;;;16.10;99.90;;;;;;5026642;28;20148;-77
2023/06/24 04:46:02;;;;;;;15.10;11.98;;;16.20;99.90;;;;;;5026760;28;20102;-77
2023/06/24 04:48:28;;;;;;;17.98;12.70;;;16.20;99.90;;;;;;4989293;28;20059;-77
2023/06/24 04:50:54;;;;;;;16.15;12.85;;;16.30;99.90;;;;;;5008787;28;20506;-79
2023/06/24 04:53:21;;;;;;;16.63;13.07;;;16.40;99.90;;;;;;5044459;28;21812;-79
2023/06/24 04:55:47;;;;;;;21.27;13.30;;;16.50;99.90;;;;;;5022245;28;20055;-76
2023/06/24 04:58:12;;;;;;;15.82;12.25;;;16.60;99.90;;;;;;5007790;28;20406;-77
2023/06/24 05:00:38;;;;;;;16.67;12.80;;;16.70;99.90;;;;;;5010668;28;20044;-76
2023/06/24 05:03:04;;;;;;;15.70;12.13;;;16.80;99.90;;;;;;5008611;28;20840;-71
2023/06/24 05:05:30;;;;;;;20.33;14.05;;;17.00;99.90;;;;;;5025489;28;20078;-71
2023/06/24 05:07:56;;;;;;;15.02;11.98;;;17.10;99.90;;;;;;5019153;28;20045;-70
2023/06/24 05:10:21;;;;;;;15.40;12.85;;;17.20;99.90;;;;;;5022260;28;20079;-69
2023/06/24 05:12:47;;;;;;;17.92;12.88;;;17.40;99.90;;;;;;5022501;28;20053;-71
2023/06/24 05:15:14;;;;;;;17.45;13.32;;;17.50;99.90;;;;;;5021409;28;20056;-71
2023/06/24 05:17:40;;;;;;;18.52;13.18;;;17.60;99.90;;;;;;5002230;28;20045;-70
2023/06/24 05:20:06;;;;;;;17.27;13.32;;;17.70;99.90;;;;;;5018108;28;20483;-70
2023/06/24 05:22:32;;;;;;;16.63;13.20;;;17.80;99.90;;;;;;5017310;28;20045;-70
2023/06/24 05:24:58;;;;;;;15.35;13.63;;;17.90;99.90;;;;;;5022711;28;20052;-70
2023/06/24 05:27:24;;;;;;;16.15;12.70;;;18.00;99.90;;;;;;5021118;28;20045;-71
2023/06/24 05:29:51;;;;;;;16.02;12.48;;;18.10;99.90;;;;;;5015951;28;20092;-73
2023/06/24 05:32:17;;;;;;;17.52;13.43;;;18.20;99.90;;;;;;5033457;28;20049;-71
2023/06/24 05:34:43;;;;;;;15.52;12.43;;;18.40;99.90;;;;;;5025201;28;20052;-71
2023/06/24 05:37:09;;;;;;;17.65;12.20;;;18.50;99.90;;;;;;5019229;28;20049;-71
2023/06/24 05:39:34;;;;;;;16.77;12.18;;;18.60;99.90;;;;;;5012535;28;20361;-70
2023/06/24 05:42:00;;;;;;;15.80;12.02;;;18.70;99.90;;;;;;5032839;28;20492;-71
2023/06/24 05:44:26;;;;;;;20.40;12.02;;;18.80;99.90;;;;;;5008454;28;20057;-70
2023/06/24 05:46:52;;;;;;;15.07;11.95;;;18.90;99.90;;;;;;5022111;28;20083;-69
2023/06/24 05:49:17;;;;;;;16.80;11.40;;;19.00;99.90;;;;;;5004389;28;20080;-71
2023/06/24 05:51:43;;;;;;;13.90;10.73;;;19.10;99.90;;;;;;5017600;28;20085;-73
2023/06/24 05:54:09;;;;;;;14.40;10.75;;;19.20;99.90;;;;;;5003646;28;20045;-72
2023/06/24 05:56:36;;;;;;;12.15;9.95;;;19.30;99.90;;;;;;5000808;28;20060;-70
2023/06/24 05:59:02;;;;;;;14.38;11.25;;;19.40;99.90;;;;;;5020174;28;20123;-71
2023/06/24 06:01:27;;;;;;;15.55;10.65;;;19.50;99.90;;;;;;5001514;28;21699;-70
2023/06/24 06:03:53;;;;;;;13.07;10.27;;;19.60;99.90;;;;;;5001940;28;20045;-70
2023/06/24 06:06:19;;;;;;;13.52;10.02;;;19.60;99.90;;;;;;5004249;28;20057;-71
2023/06/24 06:08:45;;;;;;;13.52;10.30;;;19.70;99.90;;;;;;5017873;28;20099;-70
2023/06/24 06:11:11;;;;;;;16.83;10.52;;;19.90;99.90;;;;;;5018963;28;20045;-70
2023/06/24 06:13:36;;;;;;;13.05;10.27;;;19.90;99.90;;;;;;4999756;28;20045;-70
2023/06/24 06:16:02;;;;;;;14.60;10.43;;;20.00;99.90;;;;;;5000772;28;20139;-71
2023/06/24 06:18:28;;;;;;;13.80;10.10;;;20.10;99.90;;;;;;5000998;28;20446;-70
2023/06/24 06:20:54;;;;;;;14.75;9.45;;;20.20;99.90;;;;;;5018499;28;20057;-70
2023/06/24 06:23:20;;;;;;;11.77;9.55;;;20.30;99.90;;;;;;5020845;28;20088;-71
2023/06/24 06:25:46;;;;;;;14.35;9.32;;;20.40;99.90;;;;;;5022153;28;20587;-70
2023/06/24 06:28:11;;;;;;;13.80;8.98;;;20.60;99.90;;;;;;5022894;28;20527;-71
2023/06/24 06:30:38;;;;;;;11.45;8.38;;;20.70;99.90;;;;;;5001088;28;20224;-71
2023/06/24 06:33:05;;;;;;;11.48;8.52;;;20.70;99.90;;;;;;5020631;28;20049;-71
2023/06/24 06:35:30;;;;;;;10.90;7.60;;;20.80;99.90;;;;;;5001618;28;20049;-70
2023/06/24 06:37:58;;;;;;;10.05;6.82;;;20.90;99.90;;;;;;5015843;28;20046;-72
2023/06/24 06:40:24;;;;;;;10.05;7.38;;;21.00;99.90;;;;;;5033088;28;20052;-74
2023/06/24 06:42:50;;;;;;;8.60;6.40;;;21.10;99.90;;;;;;5018130;28;20045;-74
2023/06/24 06:45:15;;;;;;;9.48;5.90;;;21.20;99.90;;;;;;5018451;28;20053;-73
2023/06/24 06:47:41;;;;;;;8.25;6.00;;;21.20;99.90;;;;;;5021920;28;20079;-73
2023/06/24 06:50:07;;;;;;;9.20;6.10;;;21.30;99.90;;;;;;5022698;28;20049;-72
2023/06/24 06:52:34;;;;;;;8.27;5.82;;;21.40;99.90;;;;;;5004575;28;20041;-73
2023/06/24 06:54:59;;;;;;;8.38;5.53;;;21.50;99.90;;;;;;5009055;28;20068;-76
2023/06/24 06:57:25;;;;;;;7.53;5.70;;;21.60;99.90;;;;;;5023015;28;20164;-84
2023/06/24 06:59:51;;;;;;;10.65;5.80;;;21.70;99.90;;;;;;5006651;28;20049;-85
2023/06/24 07:02:18;;;;;;;7.65;5.82;;;21.70;99.90;;;;;;5030757;28;20041;-82
2023/06/24 07:04:50;;;;;;;10.43;5.95;;;21.80;99.90;;;;;;5026620;28;20053;-76
2023/06/24 07:07:17;;;;;;;8.25;5.60;;;21.90;99.90;;;;;;5026646;28;20041;-77
2023/06/24 07:09:42;;;;;;;9.13;5.50;;;21.90;99.90;;;;;;5004983;28;20068;-76
2023/06/24 07:12:08;;;;;;;6.43;5.03;;;22.00;99.90;;;;;;5025298;28;20132;-78
2023/06/24 07:14:34;;;;;;;7.72;5.15;;;22.00;99.90;;;;;;5052926;28;20056;-73
2023/06/24 07:17:00;;;;;;;10.05;5.30;;;22.10;99.90;;;;;;5038777;28;20525;-73
2023/06/24 07:19:26;;;;;;;6.72;4.82;;;22.20;99.90;;;;;;5019310;28;20103;-73
2023/06/24 07:21:52;;;;;;;7.55;4.88;;;22.30;99.90;;;;;;5021686;28;20041;-73
2023/06/24 07:24:18;;;;;;;9.73;5.22;;;22.40;99.90;;;;;;5025012;28;20120;-74
2023/06/24 07:26:49;;;;;;;7.65;5.07;;;22.50;99.90;;;;;;5023613;28;20087;-74
2023/06/24 07:29:15;;;;;;;8.23;4.63;;;22.60;99.90;;;;;;5039035;28;20045;-74
2023/06/24 07:31:41;;;;;;;5.63;4.20;;;22.70;99.90;;;;;;5008321;28;20057;-73
2023/06/24 07:34:07;;;;;;;7.20;4.63;;;22.80;99.90;;;;;;5027397;28;20139;-74
2023/06/24 07:36:33;;;;;;;6.82;4.00;;;22.80;99.90;;;;;;5022790;28;20131;-73
2023/06/24 07:38:59;;;;;;;8.05;4.65;;;22.90;99.90;;;;;;5039867;28;20076;-74
2023/06/24 07:41:25;;;;;;;8.57;4.32;;;22.90;99.90;;;;;;5027105;28;20534;-73
2023/06/24 07:43:51;;;;;;;5.97;4.30;;;23.10;99.90;;;;;;5009355;28;20263;-73
2023/06/24 07:46:17;;;;;;;8.05;4.35;;;23.20;99.90;;;;;;5024574;28;20083;-76
2023/06/24 07:48:43;;;;;;;6.00;4.20;;;23.30;99.90;;;;;;5025589;28;20133;-74
2023/06/24 07:51:09;;;;;;;6.68;4.30;;;23.40;99.90;;;;;;5010079;28;20517;-74
2023/06/24 07:53:35;;;;;;;7.40;4.22;;;23.40;99.90;;;;;;5003782;28;20049;-74
2023/06/24 07:56:02;;;;;;;8.35;3.88;;;23.40;99.90;;;;;;5020914;28;20059;-74
2023/06/24 07:58:28;;;;;;;6.50;4.28;;;23.40;99.90;;;;;;5052865;28;20072;-73
2023/06/24 08:00:54;;;;;;;9.20;4.20;;;23.50;99.90;;;;;;5027329;28;20049;-75
2023/06/24 08:03:19;;;;;;;5.47;4.00;;;23.50;99.90;;;;;;4990008;28;20048;-75
2023/06/24 08:05:45;;;;;;;6.97;4.60;;;23.70;99.90;;;;;;5004539;28;20091;-75
2023/06/24 08:08:11;;;;;;;8.45;5.68;;;23.80;99.90;;;;;;5004997;28;20048;-74
2023/06/24 08:10:36;;;;;;;8.20;5.40;;;24.00;99.90;;;;;;5018049;28;20199;-74
2023/06/24 08:13:02;;;;;;;8.63;5.32;;;24.20;99.90;;;;;;5023093;28;20045;-75
2023/06/24 08:15:28;;;;;;;7.97;4.95;;;24.30;99.90;;;;;;5050893;28;20174;-74
2023/06/24 08:17:54;;;;;;;8.20;4.75;;;24.40;99.90;;;;;;5001676;28;20053;-74
2023/06/24 08:20:22;;;;;;;9.48;5.18;;;24.40;99.90;;;;;;5020054;28;20053;-72
2023/06/24 08:22:48;;;;;;;8.80;5.38;;;24.50;99.90;;;;;;5034824;28;20052;-73
2023/06/24 08:25:14;;;;;;;9.00;5.15;;;24.60;99.90;;;;;;5023395;28;20057;-72
2023/06/24 08:27:40;;;;;;;8.80;5.32;;;24.60;99.90;;;;;;5045361;28;20084;-73
2023/06/24 08:30:07;;;;;;;9.82;5.97;;;24.70;99.90;;;;;;5024167;28;20100;-72
2023/06/24 08:32:33;;;;;;;11.15;5.88;;;24.70;99.90;;;;;;5019013;28;20041;-73
2023/06/24 08:34:59;;;;;;;12.18;6.50;;;24.70;99.90;;;;;;5007242;28;20049;-73
2023/06/24 08:37:25;;;;;;;10.38;6.20;;;24.80;99.90;;;;;;5002819;28;20114;-75
2023/06/24 08:39:51;;;;;;;10.27;6.18;;;24.80;99.90;;;;;;5005792;28;20049;-74
2023/06/24 08:42:17;;;;;;;8.73;6.13;;;24.80;99.90;;;;;;5007342;28;20131;-72
2023/06/24 08:44:43;;;;;;;9.95;5.95;;;24.80;99.90;;;;;;5021361;28;20133;-72
2023/06/24 08:47:09;;;;;;;10.13;6.75;;;24.80;99.90;;;;;;5018380;28;20487;-73
2023/06/24 08:49:44;;;;;;;9.57;6.07;;;24.90;99.90;;;;;;5024338;28;20049;-74
2023/06/24 08:52:16;;;;;;;8.82;6.40;;;25.00;99.90;;;;;;5024602;28;20041;-73
2023/06/24 08:54:46;;;;;;;8.48;5.32;;;25.00;99.90;;;;;;5018788;28;20081;-71
2023/06/24 08:57:15;;;;;;;8.15;5.90;;;25.00;99.90;;;;;;5021981;28;20049;-72
2023/06/24 08:59:41;;;;;;;10.65;6.50;;;24.90;99.90;;;;;;5020359;28;20083;-69
2023/06/24 09:02:07;;;;;;;8.05;4.63;;;24.90;99.90;;;;;;5024405;28;20037;-71
2023/06/24 09:04:34;;;;;;;7.53;4.10;;;24.90;99.90;;;;;;5034761;28;20052;-71
2023/06/24 09:07:00;;;;;;;7.38;4.25;;;25.00;99.90;;;;;;5026730;28;20083;-71
2023/06/24 09:09:27;;;;;;;7.68;4.28;;;25.00;99.90;;;;;;5036270;28;20076;-72
2023/06/24 09:11:58;;;;;;;7.97;4.38;;;25.10;99.90;;;;;;5037623;28;20457;-72
2023/06/24 09:14:30;;;;;;;8.00;4.50;;;25.40;99.90;;;;;;5025676;28;20049;-72
2023/06/24 09:16:58;;;;;;;6.53;4.40;;;25.50;99.90;;;;;;5019942;28;20446;-72
2023/06/24 09:19:29;;;;;;;7.38;4.43;;;25.40;99.90;;;;;;5027237;28;20048;-72
2023/06/24 09:22:06;;;;;;;9.27;4.50;;;25.40;99.90;;;;;;5020864;28;20045;-72
2023/06/24 09:24:36;;;;;;;12.52;4.18;;;25.40;99.90;;;;;;5048249;28;20045;-72
2023/06/24 09:27:03;;;;;;;10.35;4.82;;;25.50;99.90;;;;;;5028599;28;20079;-72
2023/06/24 09:29:32;;;;;;;8.32;4.90;;;25.60;99.90;;;;;;5031478;28;20037;-73
2023/06/24 09:32:01;;;;;;;7.60;4.53;;;25.80;99.90;;;;;;5031815;28;20056;-71
2023/06/24 09:34:28;;;;;;;7.40;4.97;;;25.90;99.90;;;;;;5025309;28;20057;-72
2023/06/24 09:36:58;;;;;;;7.25;4.75;;;26.10;99.90;;;;;;5026674;28;20078;-73
2023/06/24 09:39:30;;;;;;;7.65;4.82;;;26.20;99.90;;;;;;5058475;28;20098;-72
2023/06/24 09:42:00;;;;;;;8.77;4.90;;;26.40;99.90;;;;;;5040073;28;20104;-72
2023/06/24 09:44:27;;;;;;;6.88;4.80;;;26.60;99.90;;;;;;5026319;28;20049;-72
2023/06/24 09:46:53;;;;;;;8.35;5.30;;;26.60;99.90;;;;;;5017385;28;20064;-71
2023/06/24 09:49:19;;;;;;;8.55;4.95;;;26.60;99.90;;;;;;5011266;28;20053;-72
2023/06/24 09:51:46;;;;;;;9.75;5.43;;;26.70;99.90;;;;;;5039155;28;20415;-72
2023/06/24 09:54:15;;;;;;;8.65;4.78;;;26.70;99.90;;;;;;5019640;28;20053;-73
2023/06/24 09:57:01;;;;;;;8.60;4.60;;;26.80;99.90;;;;;;5034040;28;20063;-72
2023/06/24 09:59:29;;;;;;;8.35;5.60;;;26.80;99.90;;;;;;5021695;28;20057;-73
2023/06/24 10:01:56;;;;;;;8.70;5.18;;;27.00;99.90;;;;;;5006080;28;20160;-73
2023/06/24 10:04:23;;;;;;;11.90;5.30;;;27.10;99.90;;;;;;5028442;28;20095;-72
2023/06/24 10:06:49;;;;;;;7.90;4.95;;;27.30;99.90;;;;;;5024077;28;20068;-73
2023/06/24 10:09:17;;;;;;;7.88;4.95;;;27.30;99.90;;;;;;5054845;28;20052;-72
2023/06/24 10:11:47;;;;;;;9.43;5.07;;;27.10;99.90;;;;;;5022188;28;20131;-72
2023/06/24 10:14:15;;;;;;;10.48;5.22;;;27.00;99.90;;;;;;5028213;28;20037;-72
2023/06/24 10:16:42;;;;;;;10.27;5.30;;;27.00;99.90;;;;;;5028682;28;20053;-73
2023/06/24 10:19:08;;;;;;;7.78;4.53;;;27.10;99.90;;;;;;5031446;28;20057;-72
2023/06/24 10:21:59;;;;;;;7.90;4.45;;;27.20;99.90;;;;;;5023074;28;20067;-73
2023/06/24 10:24:42;;;;;;;9.13;5.15;;;27.30;99.90;;;;;;5023807;28;20089;-73
2023/06/24 10:27:13;;;;;;;8.82;5.47;;;27.40;99.90;;;;;;5037660;28;20087;-73
2023/06/24 10:29:44;;;;;;;10.48;5.22;;;27.40;99.90;;;;;;5039401;28;20049;-75
2023/06/24 10:32:10;;;;;;;7.68;5.00;;;27.50;99.90;;;;;;5031832;28;20065;-70
2023/06/24 10:34:39;;;;;;;10.95;5.45;;;27.60;99.90;;;;;;5027408;28;20041;-72
2023/06/24 10:37:09;;;;;;;8.93;4.82;;;27.90;99.90;;;;;;5029715;28;20048;-73
2023/06/24 10:39:57;;;;;;;9.80;4.30;;;27.90;99.90;;;;;;5004225;28;20076;-73
2023/06/24 10:42:42;;;;;;;9.35;4.97;;;27.90;99.90;;;;;;5005830;28;20140;-74
2023/06/24 10:45:15;;;;;;;7.82;4.63;;;28.00;99.90;;;;;;5038210;28;20555;-76
2023/06/24 10:47:47;;;;;;;6.85;4.30;;;28.00;99.90;;;;;;5019813;28;20092;-77
2023/06/24 10:50:15;;;;;;;6.28;4.43;;;28.00;99.90;;;;;;5039368;28;20060;-74
2023/06/24 10:52:46;;;;;;;5.97;3.95;;;28.10;99.90;;;;;;5027686;28;20056;-76
2023/06/24 10:55:16;;;;;;;7.35;4.20;;;28.10;99.90;;;;;;5022102;28;20587;-77
2023/06/24 10:57:42;;;;;;;6.50;4.57;;;28.20;99.90;;;;;;5022116;28;20104;-78
2023/06/24 11:00:09;;;;;;;7.05;4.32;;;28.20;99.90;;;;;;5007286;28;20057;-78
2023/06/24 11:02:36;;;;;;;8.02;4.72;;;28.30;99.90;;;;;;5021271;28;20128;-78
2023/06/24 11:05:03;;;;;;;7.38;4.43;;;28.30;99.90;;;;;;5008771;28;20509;-77
2023/06/24 11:07:34;;;;;;;11.10;5.10;;;28.00;99.90;;;;;;5021951;28;20132;-76
2023/06/24 11:10:12;;;;;;;9.25;4.70;;;27.80;99.90;;;;;;5020800;28;20126;-76
2023/06/24 11:12:39;;;;;;;6.47;4.65;;;27.80;99.90;;;;;;5020941;28;20397;-76
2023/06/24 11:15:07;;;;;;;8.18;4.60;;;27.80;99.90;;;;;;5029953;28;20048;-76
2023/06/24 11:17:35;;;;;;;5.80;4.32;;;27.90;99.90;;;;;;5037498;28;20053;-75
2023/06/24 11:20:02;;;;;;;8.23;4.88;;;28.20;99.90;;;;;;5023922;28;20080;-79
2023/06/24 11:22:28;;;;;;;9.38;4.60;;;28.40;99.70;;;;;;5021511;28;20056;-75
2023/06/24 11:24:56;;;;;;;8.95;4.70;;;28.50;99.70;;;;;;5029917;28;20044;-76
2023/06/24 11:27:26;;;;;;;6.80;4.28;;;28.60;99.50;;;;;;5029315;28;20148;-76
2023/06/24 11:29:53;;;;;;;7.97;4.40;;;28.70;99.20;;;;;;5030009;28;20064;-77
2023/06/24 11:32:19;;;;;;;8.43;4.50;;;28.70;99.10;;;;;;5019786;28;20053;-78
2023/06/24 11:34:44;;;;;;;8.02;5.50;;;28.90;99.10;;;;;;5045807;28;20045;-77
2023/06/24 11:37:15;;;;;;;9.43;5.63;;;29.10;98.50;;;;;;5036370;28;20506;-77
2023/06/24 11:39:41;;;;;;;9.63;5.90;;;29.20;98.20;;;;;;5022643;28;20057;-74
2023/06/24 11:42:12;;;;;;;8.80;4.90;;;29.00;98.00;;;;;;5022941;28;20084;-79
2023/06/24 11:44:44;;;;;;;11.25;5.88;;;29.20;98.20;;;;;;5030590;28;20180;-74
2023/06/24 11:47:12;;;;;;;10.82;5.63;;;29.20;98.20;;;;;;5020169;28;20053;-78
2023/06/24 11:49:57;;;;;;;10.48;6.60;;;29.40;98.30;;;;;;5022666;28;20092;-74
2023/06/24 11:52:53;;;;;;;10.43;5.88;;;29.20;98.20;;;;;;5021717;28;20116;-75
2023/06/24 11:55:20;;;;;;;10.15;5.30;;;29.30;98.80;;;;;;5015454;28;20132;-74
2023/06/24 11:58:00;;;;;;;8.45;5.80;;;29.50;98.90;;;;;;5017372;28;20136;-73
2023/06/24 12:00:28;;;;;;;9.32;6.53;;;29.50;98.80;;;;;;5025371;28;20439;-72
2023/06/24 12:02:58;;;;;;;11.63;6.43;;;29.40;98.90;;;;;;5006558;28;20052;-73
2023/06/24 12:05:28;;;;;;;10.63;6.20;;;29.50;98.90;;;;;;5035309;28;20087;-73
2023/06/24 12:07:57;;;;;;;12.80;6.38;;;29.40;99.00;;;;;;5021071;28;20060;-73
2023/06/24 12:10:24;;;;;;;13.18;5.65;;;29.30;99.10;;;;;;5024362;28;20052;-73
2023/06/24 12:12:50;;;;;;;12.48;5.72;;;29.40;99.10;;;;;;5002258;28;20049;-73
2023/06/24 12:15:16;;;;;;;12.75;6.35;;;29.50;98.90;;;;;;5050412;28;20049;-73
2023/06/24 12:17:41;;;;;;;10.23;5.90;;;29.60;98.90;;;;;;5022724;28;20612;-73
2023/06/24 12:20:08;;;;;;;10.48;6.45;;;29.80;98.50;;;;;;5024881;28;20056;-73
2023/06/24 12:22:34;;;;;;;12.23;6.88;;;29.80;97.80;;;;;;5035911;28;20049;-76
2023/06/24 12:25:00;;;;;;;8.88;5.55;;;29.60;97.20;;;;;;5022988;28;20055;-73
2023/06/24 12:27:25;;;;;;;11.88;6.55;;;29.80;97.30;;;;;;5032671;28;20056;-76
2023/06/24 12:29:51;;;;;;;10.43;5.95;;;29.90;97.10;;;;;;5021049;28;20111;-76
2023/06/24 12:32:17;;;;;;;10.75;5.95;;;29.80;96.90;;;;;;5017474;28;20084;-74
2023/06/24 12:34:42;;;;;;;8.77;5.80;;;29.90;96.70;;;;;;5014275;28;20741;-74
2023/06/24 12:37:08;;;;;;;8.82;5.70;;;29.80;96.40;;;;;;5047709;28;20057;-74
2023/06/24 12:39:34;;;;;;;10.40;5.60;;;29.90;96.40;;;;;;5033677;28;20041;-73